createdAt,value
2022-10-09T00:01:19.403Z,53.34
2022-10-09T00:03:49.550Z,53.50
2022-10-09T00:06:20.461Z,53.60
2022-10-09T00:08:48.296Z,53.46
2022-10-09T00:11:20.558Z,53.31
2022-10-09T00:13:50.858Z,53.84
2022-10-09T00:16:19.971Z,54.38
2022-10-09T00:18:48.705Z,54.49
2022-10-09T00:21:21.322Z,54.62
2022-10-09T00:23:50.680Z,54.78
2022-10-09T00:26:19.476Z,54.08
2022-10-09T00:28:47.369Z,53.86
2022-10-09T00:31:15.780Z,54.09
2022-10-09T00:33:43.476Z,53.80
2022-10-09T00:36:13.312Z,54.04
2022-10-09T00:38:41.502Z,54.15
2022-10-09T00:41:11.058Z,54.15
2022-10-09T00:43:44.179Z,54.13
2022-10-09T00:46:25.506Z,54.38
2022-10-09T00:49:05.513Z,53.84
2022-10-09T00:51:34.910Z,54.24
2022-10-09T00:54:07.258Z,54.21
2022-10-09T00:56:35.224Z,54.24
2022-10-09T00:59:05.346Z,54.38
2022-10-09T01:01:33.162Z,54.58
2022-10-09T01:04:00.549Z,54.70
2022-10-09T01:06:45.975Z,54.72
2022-10-09T01:09:19.903Z,54.57
2022-10-09T01:11:57.377Z,54.90
2022-10-09T01:14:31.541Z,54.88
2022-10-09T01:17:13.120Z,55.23
2022-10-09T01:20:15.188Z,55.43
2022-10-09T01:23:12.580Z,55.44
2022-10-09T01:25:58.227Z,55.50
2022-10-09T01:28:30.189Z,55.50
2022-10-09T01:31:01.600Z,55.80
2022-10-09T01:33:31.221Z,55.63
2022-10-09T01:36:00.870Z,55.95
2022-10-09T01:38:30.341Z,56.06
2022-10-09T01:40:58.850Z,56.43
2022-10-09T01:43:27.449Z,56.37
2022-10-09T01:46:21.186Z,56.10
2022-10-09T01:49:00.033Z,56.22
2022-10-09T01:51:40.697Z,56.17
2022-10-09T01:54:14.569Z,55.90
2022-10-09T01:56:47.931Z,56.06
2022-10-09T01:59:19.761Z,55.51
2022-10-09T02:01:50.340Z,55.18
2022-10-09T02:04:19.591Z,55.59
2022-10-09T02:06:48.121Z,55.58
2022-10-09T02:09:18.376Z,55.57
2022-10-09T02:11:53.088Z,55.21
2022-10-09T02:14:21.936Z,55.29
2022-10-09T02:16:59.663Z,54.91
2022-10-09T02:19:37.179Z,54.88
2022-10-09T02:22:13.040Z,55.03
2022-10-09T02:24:42.380Z,55.33
2022-10-09T02:27:12.200Z,55.41
2022-10-09T02:29:43.703Z,55.15
2022-10-09T02:32:12.686Z,55.35
2022-10-09T02:34:40.416Z,55.03
2022-10-09T02:37:08.646Z,55.03
2022-10-09T02:39:36.370Z,55.24
2022-10-09T02:42:04.150Z,55.09
2022-10-09T02:44:31.503Z,55.55
2022-10-09T02:47:00.157Z,55.51
2022-10-09T02:49:27.524Z,55.97
2022-10-09T02:51:54.786Z,56.03
2022-10-09T02:54:21.998Z,56.54
2022-10-09T02:56:49.394Z,56.76
2022-10-09T02:59:16.869Z,57.11
2022-10-09T03:01:44.892Z,57.07
2022-10-09T03:04:13.796Z,57.44
2022-10-09T03:06:41.045Z,57.86
2022-10-09T03:09:08.298Z,58.15
2022-10-09T03:11:35.639Z,58.19
2022-10-09T03:14:02.994Z,58.92
2022-10-09T03:16:30.352Z,59.32
2022-10-09T03:18:58.494Z,59.72
2022-10-09T03:21:28.755Z,59.85
2022-10-09T03:23:56.478Z,59.97
2022-10-09T03:26:27.313Z,60.03
2022-10-09T03:28:55.648Z,59.85
2022-10-09T03:34:13.626Z,59.83
2022-10-09T03:36:42.387Z,59.99
2022-10-09T03:39:09.972Z,60.05
2022-10-09T03:41:37.287Z,60.18
2022-10-09T03:44:04.849Z,60.13
2022-10-09T03:46:32.163Z,60.10
2022-10-09T03:48:59.481Z,60.08
2022-10-09T03:51:26.864Z,60.15
2022-10-09T03:53:55.489Z,60.71
2022-10-09T03:56:22.713Z,60.62
2022-10-09T03:58:50.088Z,60.12
2022-10-09T04:01:17.360Z,59.73
2022-10-09T04:03:44.625Z,59.39
2022-10-09T04:06:12.509Z,58.69
2022-10-09T04:08:39.836Z,58.04
2022-10-09T04:11:08.549Z,57.92
2022-10-09T04:13:35.894Z,57.62
2022-10-09T04:16:03.182Z,57.48
2022-10-09T04:18:31.162Z,57.76
2022-10-09T04:20:58.457Z,58.10
2022-10-09T04:23:27.832Z,58.37
2022-10-09T04:25:58.254Z,58.72
2022-10-09T04:28:29.087Z,59.46
2022-10-09T04:30:57.536Z,59.66
2022-10-09T04:33:26.280Z,60.13
2022-10-09T04:35:57.694Z,60.50
2022-10-09T04:38:25.666Z,60.95
2022-10-09T04:40:57.180Z,60.83
2022-10-09T04:43:26.090Z,61.02
2022-10-09T04:45:53.544Z,60.95
2022-10-09T04:48:21.045Z,61.26
2022-10-09T04:50:49.784Z,61.34
2022-10-09T04:53:17.133Z,61.45
2022-10-09T04:55:45.319Z,61.30
2022-10-09T04:58:14.113Z,61.32
2022-10-09T05:00:45.971Z,61.12
2022-10-09T05:03:13.503Z,61.14
2022-10-09T05:05:40.916Z,61.30
2022-10-09T05:08:08.319Z,61.33
2022-10-09T05:10:35.682Z,61.44
2022-10-09T05:13:04.726Z,61.16
2022-10-09T05:15:35.771Z,61.17
2022-10-09T05:18:04.648Z,61.35
2022-10-09T05:20:31.954Z,61.03
2022-10-09T05:22:59.297Z,60.89
2022-10-09T05:25:26.599Z,60.96
2022-10-09T05:27:53.808Z,60.50
2022-10-09T05:30:21.114Z,60.96
2022-10-09T05:32:48.645Z,60.66
2022-10-09T05:35:17.469Z,60.39
2022-10-09T05:37:45.631Z,60.20
2022-10-09T05:40:12.934Z,60.00
2022-10-09T05:42:40.219Z,60.16
2022-10-09T05:45:09.614Z,59.81
2022-10-09T05:47:36.869Z,59.82
2022-10-09T05:50:04.928Z,59.86
2022-10-09T05:52:35.809Z,60.07
2022-10-09T05:55:03.387Z,60.52
2022-10-09T05:57:30.635Z,60.57
2022-10-09T05:59:58.201Z,60.82
2022-10-09T06:02:25.590Z,60.97
2022-10-09T06:04:52.884Z,61.25
2022-10-09T06:07:20.165Z,61.14
2022-10-09T06:09:48.759Z,61.37
2022-10-09T06:12:16.047Z,61.49
2022-10-09T06:14:43.312Z,61.84
2022-10-09T06:17:10.567Z,61.49
2022-10-09T06:19:37.916Z,61.40
2022-10-09T06:22:05.192Z,61.45
2022-10-09T06:24:32.558Z,61.53
2022-10-09T06:27:01.238Z,61.55
2022-10-09T06:29:30.052Z,61.16
2022-10-09T06:31:57.559Z,61.00
2022-10-09T06:34:24.788Z,60.84
2022-10-09T06:36:52.070Z,60.50
2022-10-09T06:39:19.582Z,60.57
2022-10-09T06:41:46.882Z,60.55
2022-10-09T06:44:17.177Z,60.24
2022-10-09T06:46:48.395Z,60.18
2022-10-09T06:49:15.662Z,60.24
2022-10-09T06:51:43.079Z,60.07
2022-10-09T06:54:14.229Z,60.13
2022-10-09T06:56:41.513Z,60.07
2022-10-09T06:59:11.280Z,60.12
2022-10-09T07:01:40.217Z,60.01
2022-10-09T07:04:13.553Z,59.86
2022-10-09T07:06:44.434Z,60.10
2022-10-09T07:09:14.629Z,60.32
2022-10-09T07:11:44.580Z,60.31
2022-10-09T07:14:15.758Z,60.44
2022-10-09T07:16:47.316Z,60.47
2022-10-09T07:19:17.526Z,60.33
2022-10-09T07:21:48.247Z,60.32
2022-10-09T07:24:16.620Z,60.30
2022-10-09T07:26:46.467Z,60.04
2022-10-09T07:29:18.010Z,59.88
2022-10-09T07:31:46.959Z,59.99
2022-10-09T07:34:14.402Z,59.81
2022-10-09T07:36:41.681Z,60.02
2022-10-09T07:39:08.982Z,60.09
2022-10-09T07:41:36.293Z,59.95
2022-10-09T07:44:03.839Z,59.56
2022-10-09T07:46:33.895Z,59.48
2022-10-09T07:49:04.077Z,59.33
2022-10-09T07:51:32.724Z,59.29
2022-10-09T07:54:01.851Z,59.23
2022-10-09T07:56:32.897Z,58.89
2022-10-09T07:59:02.631Z,59.33
2022-10-09T08:01:32.468Z,58.81
2022-10-09T08:04:02.642Z,58.66
2022-10-09T08:06:30.586Z,58.65
2022-10-09T08:09:01.454Z,57.94
2022-10-09T08:11:29.875Z,58.09
2022-10-09T08:13:57.655Z,58.27
2022-10-09T08:16:27.062Z,58.15
2022-10-09T08:18:57.360Z,58.13
2022-10-09T08:21:28.522Z,58.00
2022-10-09T08:23:58.032Z,57.93
2022-10-09T08:26:27.663Z,57.64
2022-10-09T08:28:57.488Z,57.36
2022-10-09T08:31:26.266Z,57.41
2022-10-09T08:33:55.467Z,56.39
2022-10-09T08:36:25.714Z,55.63
2022-10-09T08:38:53.352Z,55.16
2022-10-09T08:41:34.407Z,55.30
2022-10-09T08:44:10.111Z,54.59
2022-10-09T08:47:03.882Z,54.37
2022-10-09T08:49:45.141Z,54.02
2022-10-09T08:52:27.810Z,53.78
2022-10-09T08:55:03.971Z,52.44
2022-10-09T08:57:34.577Z,50.92
2022-10-09T09:00:01.877Z,49.30
2022-10-09T09:03:04.692Z,48.10
2022-10-09T09:05:45.407Z,46.05
2022-10-09T09:08:31.277Z,45.27
2022-10-09T09:11:21.429Z,43.81
2022-10-09T09:17:16.824Z,41.41
2022-10-09T09:20:01.447Z,38.97
2022-10-09T09:22:30.204Z,37.32
2022-10-09T09:25:01.008Z,36.95
2022-10-09T09:27:33.183Z,35.23
2022-10-09T09:30:13.294Z,34.48
2022-10-09T09:32:49.678Z,33.17
2022-10-09T09:35:25.407Z,31.04
2022-10-09T09:37:53.684Z,31.16
2022-10-09T09:40:37.156Z,31.39
2022-10-09T09:43:18.769Z,29.88
2022-10-09T09:45:47.399Z,31.17
2022-10-09T09:48:21.549Z,30.50
2022-10-09T09:51:10.176Z,30.99
2022-10-09T09:53:45.796Z,29.35
2022-10-09T09:56:15.292Z,28.83
2022-10-09T09:58:47.898Z,29.16
2022-10-09T10:01:25.810Z,29.43
2022-10-09T10:03:56.333Z,29.95
2022-10-09T10:06:29.648Z,29.33
2022-10-09T10:09:04.551Z,29.71
2022-10-09T10:11:35.770Z,30.24
2022-10-09T10:14:08.114Z,30.37
2022-10-09T10:16:38.767Z,29.92
2022-10-09T10:19:17.010Z,30.31
2022-10-09T10:21:48.998Z,29.96
2022-10-09T10:24:27.657Z,29.93
2022-10-09T10:27:05.320Z,30.25
2022-10-09T10:29:41.450Z,31.38
2022-10-09T10:32:18.270Z,31.92
2022-10-09T10:34:51.797Z,33.54
2022-10-09T10:37:33.098Z,34.39
2022-10-09T10:40:12.469Z,35.28
2022-10-09T10:42:59.448Z,36.03
2022-10-09T10:45:35.540Z,35.84
2022-10-09T10:48:05.215Z,36.86
2022-10-09T10:50:43.324Z,37.33
2022-10-09T10:53:27.158Z,37.33
2022-10-09T10:56:04.872Z,37.34
2022-10-09T10:58:51.101Z,37.97
2022-10-09T11:01:35.274Z,38.25
2022-10-09T11:04:35.715Z,38.22
2022-10-09T11:07:19.377Z,38.17
2022-10-09T11:10:02.787Z,38.01
2022-10-09T11:12:48.303Z,37.78
2022-10-09T11:15:39.327Z,37.80
2022-10-09T11:18:36.593Z,37.29
2022-10-09T11:21:32.510Z,36.80
2022-10-09T11:24:58.888Z,36.77
2022-10-09T11:27:35.627Z,37.43
2022-10-09T11:30:09.695Z,37.08
2022-10-09T11:32:52.556Z,36.59
2022-10-09T11:35:22.967Z,36.59
2022-10-09T11:38:01.106Z,36.12
2022-10-09T11:40:33.927Z,36.14
2022-10-09T11:43:20.883Z,35.68
2022-10-09T11:45:56.860Z,35.28
2022-10-09T11:48:37.556Z,35.80
2022-10-09T11:51:14.940Z,36.25
2022-10-09T11:53:44.860Z,36.23
2022-10-09T11:56:24.307Z,36.30
2022-10-09T11:59:03.951Z,36.05
2022-10-09T12:01:37.054Z,36.30
2022-10-09T12:04:27.775Z,36.77
2022-10-09T12:07:09.427Z,37.25
2022-10-09T12:09:42.498Z,36.72
2022-10-09T12:12:23.256Z,35.04
2022-10-09T12:14:52.965Z,32.78
2022-10-09T12:17:35.079Z,32.60
2022-10-09T12:20:15.810Z,31.23
2022-10-09T12:23:07.210Z,30.35
2022-10-09T12:25:43.840Z,30.11
2022-10-09T12:28:28.006Z,30.20
2022-10-09T12:30:59.043Z,31.44
2022-10-09T12:33:34.555Z,31.83
2022-10-09T12:36:11.789Z,32.63
2022-10-09T12:38:39.740Z,33.51
2022-10-09T12:41:20.953Z,33.06
2022-10-09T12:43:52.494Z,33.83
2022-10-09T12:46:40.582Z,34.36
2022-10-09T12:49:20.923Z,34.36
2022-10-09T12:51:56.463Z,34.21
2022-10-09T12:54:25.463Z,35.12
2022-10-09T12:56:55.480Z,35.28
2022-10-09T12:59:25.868Z,35.52
2022-10-09T13:01:59.144Z,35.97
2022-10-09T13:04:30.541Z,35.08
2022-10-09T13:07:02.947Z,34.80
2022-10-09T13:09:37.820Z,34.40
2022-10-09T13:12:15.422Z,33.72
2022-10-09T13:14:45.381Z,34.01
2022-10-09T13:17:28.278Z,34.02
2022-10-09T13:19:58.579Z,34.33
2022-10-09T13:22:32.166Z,34.73
2022-10-09T13:25:02.494Z,34.17
2022-10-09T13:27:34.223Z,34.12
2022-10-09T13:30:02.671Z,34.52
2022-10-09T13:32:29.976Z,34.39
2022-10-09T13:34:58.181Z,34.56
2022-10-09T13:37:27.746Z,34.32
2022-10-09T13:40:01.000Z,34.21
2022-10-09T13:42:37.118Z,34.64
2022-10-09T13:45:05.547Z,34.85
2022-10-09T13:47:32.861Z,34.81
2022-10-09T13:50:00.212Z,34.39
2022-10-09T13:52:28.920Z,34.16
2022-10-09T13:54:56.265Z,34.08
2022-10-09T13:57:23.591Z,34.18
2022-10-09T13:59:51.110Z,33.73
2022-10-09T14:02:18.935Z,33.75
2022-10-09T14:04:46.345Z,33.56
2022-10-09T14:07:13.745Z,33.35
2022-10-09T14:09:42.570Z,33.62
2022-10-09T14:12:10.364Z,33.82
2022-10-09T14:14:37.599Z,34.27
2022-10-09T14:17:05.011Z,34.32
2022-10-09T14:19:32.364Z,33.87
2022-10-09T14:21:59.745Z,33.84
2022-10-09T14:24:27.680Z,33.77
2022-10-09T14:26:56.295Z,33.72
2022-10-09T14:29:23.653Z,34.31
2022-10-09T14:31:51.776Z,34.26
2022-10-09T14:34:19.366Z,34.49
2022-10-09T14:36:46.787Z,34.07
2022-10-09T14:39:14.215Z,34.38
2022-10-09T14:41:41.466Z,34.23
2022-10-09T14:44:11.045Z,34.61
2022-10-09T14:46:39.308Z,34.26
2022-10-09T14:49:08.755Z,34.42
2022-10-09T14:51:38.881Z,34.83
2022-10-09T14:54:08.334Z,34.73
2022-10-09T14:56:36.328Z,34.65
2022-10-09T14:59:05.913Z,34.01
2022-10-09T15:01:35.821Z,34.43
2022-10-09T15:04:04.382Z,34.60
2022-10-09T15:06:32.766Z,35.00
2022-10-09T15:09:05.328Z,35.12
2022-10-09T15:11:35.257Z,35.00
2022-10-09T15:14:04.641Z,35.25
2022-10-09T15:16:32.065Z,36.08
2022-10-09T15:19:01.133Z,35.80
2022-10-09T15:21:32.180Z,36.42
2022-10-09T15:24:01.570Z,36.58
2022-10-09T15:26:32.863Z,36.18
2022-10-09T15:29:03.171Z,36.40
2022-10-09T15:31:33.292Z,36.45
2022-10-09T15:34:03.484Z,37.16
2022-10-09T15:36:37.609Z,36.89
2022-10-09T15:39:07.387Z,37.36
2022-10-09T15:41:37.781Z,37.09
2022-10-09T15:44:08.102Z,37.18
2022-10-09T15:46:35.479Z,37.89
2022-10-09T15:49:04.207Z,37.38
2022-10-09T15:51:33.187Z,38.02
2022-10-09T15:54:01.352Z,37.82
2022-10-09T15:56:29.856Z,37.63
2022-10-09T15:58:58.926Z,37.65
2022-10-09T16:01:26.690Z,37.97
2022-10-09T16:03:58.547Z,38.18
2022-10-09T16:06:27.217Z,38.24
2022-10-09T16:08:56.668Z,38.20
2022-10-09T16:11:26.427Z,38.92
2022-10-09T16:13:55.685Z,39.01
2022-10-09T16:16:25.756Z,38.84
2022-10-09T16:18:53.667Z,38.86
2022-10-09T16:21:24.254Z,39.46
2022-10-09T16:23:58.522Z,39.12
2022-10-09T16:26:28.585Z,39.75
2022-10-09T16:28:56.070Z,39.88
2022-10-09T16:31:26.948Z,39.73
2022-10-09T16:33:54.892Z,39.47
2022-10-09T16:36:22.618Z,40.14
2022-10-09T16:38:49.936Z,39.82
2022-10-09T16:41:21.681Z,40.33
2022-10-09T16:43:52.138Z,40.41
2022-10-09T16:46:23.046Z,40.47
2022-10-09T16:48:51.302Z,40.43
2022-10-09T16:51:21.556Z,40.34
2022-10-09T16:53:50.291Z,40.64
2022-10-09T16:56:21.612Z,40.90
2022-10-09T16:58:49.323Z,40.93
2022-10-09T17:01:20.204Z,41.00
2022-10-09T17:03:53.442Z,41.29
2022-10-09T17:06:23.503Z,41.49
2022-10-09T17:08:52.335Z,41.38
2022-10-09T17:11:22.472Z,41.88
2022-10-09T17:13:49.903Z,42.07
2022-10-09T17:16:23.915Z,41.98
2022-10-09T17:18:51.344Z,41.99
2022-10-09T17:21:19.053Z,42.31
2022-10-09T17:23:47.346Z,42.37
2022-10-09T17:26:18.637Z,42.37
2022-10-09T17:28:48.685Z,42.42
2022-10-09T17:31:20.663Z,42.14
2022-10-09T17:33:49.823Z,42.49
2022-10-09T17:36:21.068Z,42.55
2022-10-09T17:38:50.803Z,42.55
2022-10-09T17:41:21.689Z,42.70
2022-10-09T17:43:50.591Z,42.76
2022-10-09T17:46:19.221Z,42.96
2022-10-09T17:48:50.004Z,43.13
2022-10-09T17:51:21.079Z,43.07
2022-10-09T17:53:48.665Z,43.07
2022-10-09T17:56:16.196Z,43.11
2022-10-09T17:58:44.603Z,43.35
2022-10-09T18:01:14.436Z,43.47
2022-10-09T18:03:42.580Z,43.63
2022-10-09T18:06:15.159Z,43.77
2022-10-09T18:08:43.415Z,43.74
2022-10-09T18:11:14.717Z,43.71
2022-10-09T18:13:44.081Z,43.76
2022-10-09T18:16:15.928Z,43.94
2022-10-09T18:18:44.645Z,43.87
2022-10-09T18:21:18.079Z,44.27
2022-10-09T18:23:46.905Z,44.37
2022-10-09T18:26:18.050Z,44.52
2022-10-09T18:28:48.380Z,44.39
2022-10-09T18:31:20.853Z,44.69
2022-10-09T18:33:48.584Z,44.77
2022-10-09T18:36:19.697Z,44.75
2022-10-09T18:38:50.014Z,44.83
2022-10-09T18:41:18.753Z,44.95
2022-10-09T18:43:47.265Z,45.29
2022-10-09T18:46:17.781Z,45.00
2022-10-09T18:48:46.357Z,45.28
2022-10-09T18:51:17.470Z,45.17
2022-10-09T18:53:51.477Z,45.46
2022-10-09T18:56:21.160Z,45.47
2022-10-09T18:58:51.139Z,45.71
2022-10-09T19:01:20.174Z,45.57
2022-10-09T19:03:50.045Z,45.66
2022-10-09T19:06:18.224Z,45.98
2022-10-09T19:08:45.986Z,46.12
2022-10-09T19:11:14.587Z,46.25
2022-10-09T19:13:42.906Z,46.34
2022-10-09T19:16:10.514Z,46.42
2022-10-09T19:18:39.618Z,46.55
2022-10-09T19:21:11.756Z,46.58
2022-10-09T19:23:39.251Z,46.67
2022-10-09T19:26:06.668Z,46.74
2022-10-09T19:28:37.806Z,46.74
2022-10-09T19:33:59.972Z,46.99
2022-10-09T19:36:27.286Z,47.19
2022-10-09T19:38:54.822Z,47.21
2022-10-09T19:41:22.151Z,47.55
2022-10-09T19:43:49.467Z,47.39
2022-10-09T19:46:20.045Z,47.57
2022-10-09T19:48:47.809Z,47.64
2022-10-09T19:51:21.036Z,47.95
2022-10-09T19:53:50.916Z,47.64
2022-10-09T19:56:21.419Z,47.82
2022-10-09T19:58:49.942Z,48.17
2022-10-09T20:01:20.111Z,48.08
2022-10-09T20:03:48.960Z,48.27
2022-10-09T20:06:17.555Z,48.35
2022-10-09T20:08:45.271Z,48.91
2022-10-09T20:11:13.805Z,48.83
2022-10-09T20:13:42.700Z,49.10
2022-10-09T20:16:13.005Z,49.24
2022-10-09T20:18:42.368Z,49.12
2022-10-09T20:21:11.577Z,49.51
2022-10-09T20:23:40.729Z,49.28
2022-10-09T20:26:11.317Z,49.38
2022-10-09T20:28:39.197Z,49.82
2022-10-09T20:31:10.539Z,49.63
2022-10-09T20:33:39.128Z,49.35
2022-10-09T20:36:08.126Z,49.62
2022-10-09T20:38:35.818Z,49.50
2022-10-09T20:41:09.285Z,49.55
2022-10-09T20:43:37.667Z,49.91
2022-10-09T20:46:07.243Z,50.13
2022-10-09T20:48:34.636Z,50.32
2022-10-09T20:51:01.992Z,49.99
2022-10-09T20:53:29.454Z,50.39
2022-10-09T20:56:00.361Z,49.99
2022-10-09T20:58:29.695Z,50.15
2022-10-09T21:00:57.165Z,50.31
2022-10-09T21:03:24.860Z,50.40
2022-10-09T21:05:52.871Z,50.62
2022-10-09T21:08:20.219Z,50.44
2022-10-09T21:10:49.666Z,50.83
2022-10-09T21:13:17.347Z,50.90
2022-10-09T21:15:48.991Z,50.66
2022-10-09T21:18:18.684Z,50.52
2022-10-09T21:20:48.349Z,50.80
2022-10-09T21:23:18.854Z,51.02
2022-10-09T21:25:51.726Z,50.96
2022-10-09T21:28:20.895Z,50.87
2022-10-09T21:30:50.078Z,50.92
2022-10-09T21:33:17.951Z,51.20
2022-10-09T21:35:49.225Z,50.93
2022-10-09T21:38:20.118Z,50.88
2022-10-09T21:40:49.385Z,50.91
2022-10-09T21:43:17.695Z,51.14
2022-10-09T21:45:50.907Z,50.93
2022-10-09T21:48:18.399Z,50.59
2022-10-09T21:50:46.166Z,50.82
2022-10-09T21:53:13.736Z,50.55
2022-10-09T21:55:41.353Z,50.78
2022-10-09T21:58:10.460Z,50.82
2022-10-09T22:00:37.733Z,51.04
2022-10-09T22:03:06.435Z,51.01
2022-10-09T22:05:33.776Z,50.88
2022-10-09T22:08:01.053Z,50.89
2022-10-09T22:10:28.347Z,51.02
2022-10-09T22:12:55.662Z,51.15
2022-10-09T22:15:23.067Z,51.33
2022-10-09T22:17:50.331Z,51.21
2022-10-09T22:20:19.444Z,51.36
2022-10-09T22:22:46.768Z,50.90
2022-10-09T22:25:14.324Z,51.07
2022-10-09T22:27:41.599Z,51.12
2022-10-09T22:30:10.634Z,50.89
2022-10-09T22:32:37.958Z,50.85
2022-10-09T22:35:06.287Z,51.25
2022-10-09T22:37:34.917Z,50.84
2022-10-09T22:40:02.215Z,50.74
2022-10-09T22:42:29.459Z,50.78
2022-10-09T22:44:56.778Z,50.65
2022-10-09T22:47:24.183Z,50.58
2022-10-09T22:49:51.488Z,50.45
2022-10-09T22:52:18.740Z,50.61
2022-10-09T22:54:47.345Z,50.59
2022-10-09T22:57:14.993Z,50.55
2022-10-09T22:59:42.644Z,50.25
2022-10-09T23:02:10.008Z,50.47
2022-10-09T23:04:37.379Z,50.19
2022-10-09T23:07:05.397Z,50.37
2022-10-09T23:09:33.368Z,50.54
2022-10-09T23:12:02.041Z,50.64
2022-10-09T23:14:29.595Z,50.49
2022-10-09T23:16:56.870Z,50.59
2022-10-09T23:19:24.228Z,50.38
2022-10-09T23:21:51.452Z,50.42
2022-10-09T23:24:18.758Z,50.49
2022-10-09T23:26:51.102Z,50.52
2022-10-09T23:29:21.102Z,50.41
2022-10-09T23:31:51.831Z,50.43
2022-10-09T23:34:19.148Z,50.79
2022-10-09T23:36:46.447Z,50.43
2022-10-09T23:39:13.854Z,50.16
2022-10-09T23:41:41.163Z,50.62
2022-10-09T23:44:08.448Z,50.64
2022-10-09T23:46:37.770Z,50.67
2022-10-09T23:49:05.847Z,50.50
2022-10-09T23:51:33.240Z,50.90
2022-10-09T23:54:00.652Z,50.92
2022-10-09T23:56:30.299Z,50.89
2022-10-09T23:59:00.339Z,51.09
